Time;durP1;ratioP1;P1;durP2;ratioP2;P2;SDS_P1;SDS_P2;PMS_P1;PMS_P2;Temp;Humidity;BMP_temperature;BMP_pressure;BME280_temperature;BME280_humidity;BME280_pressure;Samples;Min_cycle;Max_cycle;Signal;HPM_P1;HPM_P2
2022/08/04 00:02:17;;;;;;;17.80;2.00;;;;;;;22.88;64.75;99890.84;5027871;28;20444;-48
2022/08/04 00:04:51;;;;;;;1.10;0.87;;;;;;;22.73;65.38;99898.41;5026025;28;20829;-49
2022/08/04 00:07:25;;;;;;;1.03;0.93;;;;;;;22.70;65.63;99897.81;5027364;28;20448;-48
2022/08/04 00:10:12;;;;;;;5.53;1.70;;;;;;;22.77;64.95;99904.47;5027509;28;20539;-48
2022/08/04 00:12:44;;;;;;;1.00;0.90;;;;;;;22.79;65.05;99898.91;5025363;28;20509;-48
2022/08/04 00:15:13;;;;;;;1.00;0.90;;;;;;;22.58;66.33;99898.88;5020937;28;20907;-48
2022/08/04 00:17:49;;;;;;;1.00;0.90;;;;;;;22.70;66.11;99892.41;5034158;28;20531;-50
2022/08/04 00:20:18;;;;;;;10.80;1.23;;;;;;;22.70;65.69;99901.41;5021469;28;20462;-48
2022/08/04 00:22:47;;;;;;;2.07;1.90;;;;;;;22.55;66.27;99891.88;5020657;28;20449;-48
2022/08/04 00:25:14;;;;;;;0.90;0.70;;;;;;;22.55;66.18;99896.44;5025995;28;20472;-49
2022/08/04 00:27:40;;;;;;;3.80;1.17;;;;;;;22.36;66.59;99889.84;5027431;28;20455;-48
2022/08/04 00:30:07;;;;;;;1.10;1.00;;;;;;;22.37;67.34;99893.44;5030854;28;20827;-48
2022/08/04 00:32:34;;;;;;;11.83;0.97;;;;;;;22.41;67.26;99894.88;5038872;28;20447;-48
2022/08/04 00:35:00;;;;;;;0.80;0.73;;;;;;;22.29;66.77;99887.78;5021981;28;20483;-48
2022/08/04 00:37:27;;;;;;;1.70;1.37;;;;;;;22.24;67.18;99890.03;5031774;28;20466;-49
2022/08/04 00:39:55;;;;;;;0.87;0.73;;;;;;;22.27;67.35;99887.91;5025376;28;20453;-48
2022/08/04 00:42:40;;;;;;;1.60;0.83;;;;;;;22.08;67.69;99888.59;5027048;28;20456;-48
2022/08/04 00:45:27;;;;;;;7.23;1.80;;;;;;;22.13;67.98;99886.34;5027105;28;20463;-49
2022/08/04 00:48:00;;;;;;;1.27;1.17;;;;;;;21.96;68.42;99888.72;5026469;28;20460;-48
2022/08/04 00:51:12;;;;;;;1.27;0.80;;;;;;;21.95;68.83;99895.97;5026721;28;20585;-48
2022/08/04 00:54:08;;;;;;;1.33;1.23;;;;;;;22.01;68.81;99894.59;4990267;28;20455;-49
2022/08/04 00:56:47;;;;;;;1.53;0.90;;;;;;;21.98;69.04;99890.28;5025482;28;20454;-49
2022/08/04 00:59:45;;;;;;;2.40;1.23;;;;;;;21.91;68.65;99897.19;5026527;28;20456;-48
2022/08/04 01:02:49;;;;;;;6.53;1.17;;;;;;;21.89;68.43;99893.75;5021277;28;20457;-48
2022/08/04 01:05:34;;;;;;;1.40;1.30;;;;;;;22.05;68.32;99898.75;5026822;28;20476;-48
2022/08/04 01:08:24;;;;;;;0.80;0.73;;;;;;;22.02;68.60;99902.59;5025904;28;20479;-48
2022/08/04 01:11:32;;;;;;;20.77;1.30;;;;;;;21.90;69.25;99906.28;5022048;28;20551;-47
2022/08/04 01:14:43;;;;;;;1.47;1.33;;;;;;;21.91;69.17;99905.31;4993499;28;20476;-47
2022/08/04 01:17:17;;;;;;;0.80;0.50;;;;;;;21.92;68.94;99900.75;5031638;28;20458;-49
2022/08/04 01:20:07;;;;;;;1.63;1.53;;;;;;;21.85;69.18;99903.13;5019494;28;20460;-48
2022/08/04 01:22:33;;;;;;;1.57;1.47;;;;;;;21.71;69.86;99904.22;5021479;28;20810;-48
2022/08/04 01:25:15;;;;;;;1.10;1.00;;;;;;;21.76;69.59;99899.31;5026127;28;20483;-47
2022/08/04 01:28:05;;;;;;;1.37;1.27;;;;;;;21.68;70.21;99900.94;5026083;28;20450;-49
2022/08/04 01:30:32;;;;;;;1.00;0.70;;;;;;;21.67;70.16;99891.09;5023960;28;21005;-49
2022/08/04 01:33:05;;;;;;;1.63;1.53;;;;;;;21.68;70.68;99896.38;5027761;28;20457;-47
2022/08/04 01:35:48;;;;;;;1.50;1.40;;;;;;;21.57;70.98;99891.81;5025292;28;20471;-48
2022/08/04 01:38:32;;;;;;;1.93;1.20;;;;;;;21.51;71.14;99896.84;5032209;28;20467;-47
2022/08/04 01:41:03;;;;;;;1.10;0.83;;;;;;;21.50;71.24;99887.00;5019071;28;20968;-47
2022/08/04 01:43:32;;;;;;;1.20;1.10;;;;;;;21.54;71.24;99883.97;5021397;28;20451;-48
2022/08/04 01:46:03;;;;;;;1.27;1.17;;;;;;;21.58;70.82;99882.72;5030691;28;20847;-47
2022/08/04 01:48:37;;;;;;;0.97;0.93;;;;;;;21.65;70.74;99884.91;5019543;28;20449;-48
2022/08/04 01:51:06;;;;;;;1.17;1.07;;;;;;;21.44;71.52;99885.69;5019221;28;20492;-49
2022/08/04 01:53:39;;;;;;;1.20;1.10;;;;;;;21.41;71.53;99887.78;5019040;28;20921;-48
2022/08/04 01:56:11;;;;;;;1.60;0.93;;;;;;;21.54;70.93;99881.25;5024227;28;20480;-47
2022/08/04 01:58:39;;;;;;;1.67;1.57;;;;;;;21.58;71.04;99882.72;5025518;28;20451;-47
2022/08/04 02:01:08;;;;;;;2.10;1.17;;;;;;;21.58;70.84;99889.97;5021628;28;20938;-48
2022/08/04 02:03:37;;;;;;;0.67;0.63;;;;;;;21.62;70.46;99888.72;5019103;28;20547;-48
2022/08/04 02:06:50;;;;;;;0.93;0.93;;;;;;;21.25;71.46;99882.72;5019449;28;20449;-47
2022/08/04 02:09:23;;;;;;;2.93;0.97;;;;;;;21.40;70.91;99878.81;5015131;28;20964;-47
2022/08/04 02:12:39;;;;;;;1.60;1.50;;;;;;;21.27;71.71;99878.06;5018726;28;20490;-47
2022/08/04 02:15:27;;;;;;;1.13;1.03;;;;;;;21.22;72.03;99874.81;5014982;28;21017;-47
2022/08/04 02:18:06;;;;;;;3.90;1.10;;;;;;;21.08;72.40;99884.00;5030292;28;20815;-47
2022/08/04 02:20:37;;;;;;;1.20;1.10;;;;;;;21.09;72.61;99884.88;5021886;28;20818;-48
2022/08/04 02:23:13;;;;;;;9.97;1.43;;;;;;;20.94;73.11;99878.81;5018686;28;20451;-48
2022/08/04 02:25:45;;;;;;;38.67;2.37;;;;;;;20.95;73.04;99878.69;5020580;28;20556;-47
2022/08/04 02:28:20;;;;;;;1.97;1.50;;;;;;;20.94;73.07;99874.28;5025857;28;20452;-48
2022/08/04 02:31:05;;;;;;;1.47;1.37;;;;;;;20.88;73.36;99877.47;5029775;28;20554;-47
2022/08/04 02:33:37;;;;;;;2.83;1.03;;;;;;;20.88;73.45;99874.75;5024106;28;20856;-47
2022/08/04 02:36:10;;;;;;;10.20;1.30;;;;;;;20.74;74.30;99879.53;5022224;28;20467;-47
2022/08/04 02:38:42;;;;;;;2.90;1.27;;;;;;;20.96;73.06;99876.84;5035612;28;20844;-48
2022/08/04 02:41:10;;;;;;;1.47;1.23;;;;;;;20.77;73.97;99868.47;5023813;28;20448;-48
2022/08/04 02:43:38;;;;;;;2.03;1.17;;;;;;;20.79;73.99;99872.78;5025228;28;20459;-48
2022/08/04 02:46:20;;;;;;;1.00;0.67;;;;;;;20.52;74.47;99867.66;5027829;28;20475;-48
2022/08/04 02:48:49;;;;;;;1.33;1.23;;;;;;;20.65;74.57;99863.03;5022298;28;20448;-47
2022/08/04 02:51:19;;;;;;;1.20;0.90;;;;;;;20.59;74.90;99863.53;5027105;28;21016;-47
2022/08/04 02:53:48;;;;;;;1.40;1.30;;;;;;;20.34;76.23;99864.50;5029383;28;20805;-47
2022/08/04 02:56:18;;;;;;;1.30;1.20;;;;;;;20.47;75.78;99856.34;5024786;28;20485;-47
2022/08/04 02:58:50;;;;;;;7.03;2.27;;;;;;;20.68;74.90;99854.69;5021904;28;20850;-48
2022/08/04 03:01:17;;;;;;;2.17;1.20;;;;;;;20.62;74.69;99862.41;5024845;28;20441;-47
2022/08/04 03:03:50;;;;;;;0.90;0.80;;;;;;;20.61;74.84;99858.00;5028696;28;20801;-47
2022/08/04 03:06:39;;;;;;;1.33;1.23;;;;;;;20.72;74.35;99859.88;5027619;28;20984;-47
2022/08/04 03:09:24;;;;;;;28.47;1.70;;;;;;;20.87;74.22;99855.97;5026691;28;20444;-47
2022/08/04 03:12:16;;;;;;;0.93;0.90;;;;;;;20.91;74.09;99858.31;5028655;28;20492;-47
2022/08/04 03:15:03;;;;;;;1.47;1.37;;;;;;;20.87;74.69;99862.25;5028515;28;20474;-48
2022/08/04 03:17:38;;;;;;;0.97;0.97;;;;;;;20.78;75.30;99856.69;5041960;28;20447;-47
2022/08/04 03:20:21;;;;;;;1.57;1.03;;;;;;;20.41;76.19;99854.97;5022855;28;20448;-49
2022/08/04 03:22:50;;;;;;;1.97;1.70;;;;;;;20.34;76.35;99864.50;5021767;28;20455;-47
2022/08/04 03:25:50;;;;;;;1.17;1.03;;;;;;;20.40;76.34;99857.75;5023840;28;20472;-47
2022/08/04 03:28:41;;;;;;;1.23;1.13;;;;;;;20.31;76.71;99853.94;5034867;28;20447;-47
2022/08/04 03:31:26;;;;;;;1.97;1.87;;;;;;;20.45;75.62;99855.63;5034283;28;20491;-47
2022/08/04 03:34:11;;;;;;;1.07;0.97;;;;;;;20.46;75.52;99864.56;5022677;28;20451;-47
2022/08/04 03:36:58;;;;;;;1.80;1.70;;;;;;;20.56;75.52;99863.75;5022873;28;20458;-47
2022/08/04 03:39:33;;;;;;;6.00;1.00;;;;;;;20.41;76.37;99865.75;5030756;28;20454;-49
2022/08/04 03:42:26;;;;;;;1.87;1.70;;;;;;;20.42;76.12;99866.63;5026754;28;20450;-47
2022/08/04 03:45:11;;;;;;;4.80;2.07;;;;;;;20.08;77.08;99876.38;5023398;28;20476;-47
2022/08/04 03:48:03;;;;;;;0.70;0.63;;;;;;;20.17;77.00;99880.25;5028172;28;20498;-50
2022/08/04 03:54:13;;;;;;;1.10;1.00;;;;;;;20.12;77.56;99875.16;5027706;28;20452;-47
2022/08/04 03:57:06;;;;;;;10.43;1.23;;;;;;;20.01;77.74;99873.31;5027629;28;20821;-48
2022/08/04 03:59:42;;;;;;;0.80;0.73;;;;;;;20.18;77.56;99874.72;5011173;28;20452;-47
2022/08/04 04:02:29;;;;;;;6.50;1.90;;;;;;;20.13;77.60;99876.88;5027735;28;20452;-47
2022/08/04 04:05:09;;;;;;;1.43;1.33;;;;;;;20.13;77.17;99874.19;5027785;28;20932;-47
2022/08/04 04:08:26;;;;;;;1.10;1.00;;;;;;;20.05;77.73;99882.03;5023336;28;20443;-47
2022/08/04 04:11:18;;;;;;;0.90;0.70;;;;;;;20.10;77.69;99879.81;5023691;28;20495;-47
2022/08/04 04:14:06;;;;;;;2.63;1.60;;;;;;;20.24;77.10;99882.34;4990495;28;20463;-47
2022/08/04 04:16:44;;;;;;;2.70;1.37;;;;;;;20.14;77.74;99875.91;5031949;28;20444;-48
2022/08/04 04:19:35;;;;;;;17.63;1.90;;;;;;;20.17;77.63;99878.41;5023665;28;20455;-47
2022/08/04 04:22:21;;;;;;;1.03;0.93;;;;;;;20.10;78.02;99879.81;5021390;28;20483;-48
2022/08/04 04:24:58;;;;;;;1.40;1.30;;;;;;;20.17;77.85;99875.72;5020232;28;21000;-47
2022/08/04 04:27:50;;;;;;;1.30;1.20;;;;;;;20.15;78.43;99877.66;5023092;28;20444;-47
2022/08/04 04:30:30;;;;;;;1.67;1.40;;;;;;;20.14;78.33;99884.00;5032405;28;20948;-47
2022/08/04 04:33:18;;;;;;;11.60;1.30;;;;;;;20.27;77.89;99884.81;5031591;28;20464;-47
2022/08/04 04:36:06;;;;;;;1.63;1.53;;;;;;;20.58;76.26;99886.09;5027192;28;20471;-47
2022/08/04 04:39:14;;;;;;;2.57;2.20;;;;;;;20.25;77.80;99881.38;5024541;28;20448;-48
2022/08/04 04:41:52;;;;;;;1.23;1.13;;;;;;;20.33;77.45;99887.06;5023927;28;20930;-47
2022/08/04 04:44:49;;;;;;;1.47;1.37;;;;;;;20.48;77.23;99885.06;5026852;28;20977;-47
2022/08/04 04:47:37;;;;;;;1.80;1.60;;;;;;;20.47;77.37;99893.31;5030690;28;20440;-48
2022/08/04 04:50:43;;;;;;;4.20;2.33;;;;;;;20.79;76.77;99888.97;5026886;28;20892;-47
2022/08/04 04:53:19;;;;;;;1.20;1.10;;;;;;;20.84;76.94;99894.06;5024616;28;20515;-48
2022/08/04 04:56:04;;;;;;;1.40;1.20;;;;;;;21.24;75.17;99900.75;5020139;28;20493;-47
2022/08/04 04:58:34;;;;;;;8.60;1.40;;;;;;;21.82;73.42;99895.25;5020276;28;20452;-47
2022/08/04 05:01:29;;;;;;;1.37;1.27;;;;;;;22.39;70.54;99894.16;5024611;28;20447;-47
2022/08/04 05:04:17;;;;;;;1.30;1.20;;;;;;;22.99;68.61;99896.22;5026460;28;20456;-47
2022/08/04 05:07:02;;;;;;;2.20;1.63;;;;;;;23.36;67.13;99901.16;5026436;28;21007;-48
2022/08/04 05:09:56;;;;;;;1.53;1.43;;;;;;;23.74;64.88;99902.34;5025426;28;20826;-48
2022/08/04 05:13:01;;;;;;;1.53;1.37;;;;;;;24.26;63.96;99909.38;5023662;28;20496;-47
2022/08/04 05:15:54;;;;;;;2.90;1.67;;;;;;;24.02;64.00;99909.72;5024369;28;20472;-48
2022/08/04 05:18:25;;;;;;;3.20;1.80;;;;;;;23.97;64.41;99909.28;5027641;28;20449;-47
2022/08/04 05:20:56;;;;;;;4.23;1.83;;;;;;;24.48;62.97;99910.97;5024793;28;20440;-47
2022/08/04 05:23:28;;;;;;;1.57;1.47;;;;;;;24.52;62.73;99909.69;5026644;28;21033;-51
2022/08/04 05:25:58;;;;;;;1.13;1.00;;;;;;;24.85;61.46;99908.41;5026206;28;20476;-52
2022/08/04 05:28:37;;;;;;;10.60;1.20;;;;;;;25.09;60.69;99913.44;5021463;28;20852;-52
2022/08/04 05:31:12;;;;;;;1.40;1.30;;;;;;;25.42;59.59;99903.88;5031553;28;20509;-52
2022/08/04 05:33:46;;;;;;;1.70;1.60;;;;;;;25.48;58.83;99913.28;5022814;28;20462;-51
2022/08/04 05:36:18;;;;;;;1.07;0.97;;;;;;;25.63;59.01;99909.97;5028938;28;21797;-50
2022/08/04 05:39:09;;;;;;;1.30;1.20;;;;;;;25.50;58.93;99914.91;5031209;28;20452;-51
2022/08/04 05:41:37;;;;;;;1.73;1.63;;;;;;;25.13;60.37;99917.56;5021239;28;20929;-51
2022/08/04 05:44:18;;;;;;;8.20;1.60;;;;;;;25.33;59.97;99918.34;5018908;28;20543;-51
2022/08/04 05:46:50;;;;;;;19.53;2.77;;;;;;;25.43;59.80;99918.34;5032590;28;20509;-51
2022/08/04 05:49:22;;;;;;;13.67;2.23;;;;;;;25.60;60.20;99910.25;5019089;28;20454;-53
2022/08/04 05:51:50;;;;;;;22.70;3.10;;;;;;;25.88;59.49;99919.31;5019635;28;20488;-50
2022/08/04 05:54:17;;;;;;;2.37;2.17;;;;;;;25.92;59.12;99911.72;5018966;28;20975;-51
2022/08/04 05:56:45;;;;;;;1.77;1.67;;;;;;;26.25;57.99;99923.84;5018877;28;20487;-51
2022/08/04 05:59:13;;;;;;;3.00;2.27;;;;;;;26.16;57.73;99919.31;5025564;28;20531;-51
2022/08/04 06:01:40;;;;;;;1.30;1.20;;;;;;;26.34;58.13;99925.66;5013023;28;20455;-52
2022/08/04 06:04:29;;;;;;;15.83;1.97;;;;;;;26.21;57.54;99925.19;5022196;28;20495;-51
2022/08/04 06:06:56;;;;;;;1.80;1.63;;;;;;;26.91;56.26;99920.81;5025419;28;20811;-52
2022/08/04 06:09:23;;;;;;;1.77;1.67;;;;;;;26.69;56.51;99924.00;5023296;28;20459;-52
2022/08/04 06:11:52;;;;;;;7.93;1.83;;;;;;;26.89;56.13;99931.00;5018900;28;20510;-52
2022/08/04 06:14:34;;;;;;;9.33;1.20;;;;;;;27.32;54.93;99915.69;5019988;28;20468;-52
2022/08/04 06:17:04;;;;;;;1.50;1.40;;;;;;;27.26;55.18;99919.88;5032167;28;20448;-52
2022/08/04 06:19:53;;;;;;;2.90;2.70;;;;;;;27.62;54.84;99919.78;5018653;28;20976;-54
2022/08/04 06:22:41;;;;;;;2.40;1.53;;;;;;;27.68;53.49;99925.47;5019733;28;20437;-51
2022/08/04 06:25:11;;;;;;;2.27;2.10;;;;;;;27.31;54.33;99920.28;5025507;28;20472;-51
2022/08/04 06:27:39;;;;;;;2.43;1.43;;;;;;;26.95;54.63;99919.47;5025618;28;20458;-52
2022/08/04 06:30:10;;;;;;;3.57;1.23;;;;;;;26.95;55.73;99922.19;5019863;28;20444;-52
2022/08/04 06:32:46;;;;;;;2.03;1.93;;;;;;;27.10;54.39;99915.19;5030550;28;20500;-52
2022/08/04 06:35:17;;;;;;;2.30;1.70;;;;;;;27.21;54.44;99913.22;5022042;28;20503;-53
2022/08/04 06:37:46;;;;;;;1.50;1.40;;;;;;;26.93;54.67;99912.44;5029929;28;20467;-52
2022/08/04 06:40:15;;;;;;;7.03;1.70;;;;;;;26.86;55.62;99913.09;5021257;28;20543;-53
2022/08/04 06:43:00;;;;;;;3.10;2.13;;;;;;;27.19;54.70;99917.97;5018654;28;20506;-52
2022/08/04 06:45:28;;;;;;;8.30;1.80;;;;;;;27.32;54.82;99919.28;5023096;28;20468;-52
2022/08/04 06:47:56;;;;;;;1.37;1.27;;;;;;;26.95;55.28;99922.19;5024574;28;20547;-53
2022/08/04 06:50:23;;;;;;;3.23;2.93;;;;;;;26.83;56.15;99918.84;5025398;28;20827;-53
2022/08/04 06:53:10;;;;;;;5.57;1.40;;;;;;;26.77;56.76;99922.22;5022700;28;20546;-53
2022/08/04 06:55:39;;;;;;;1.20;1.10;;;;;;;27.03;54.98;99913.25;5018257;28;20486;-52
2022/08/04 06:58:06;;;;;;;5.33;1.50;;;;;;;27.02;55.44;99917.84;5021091;28;20840;-53
2022/08/04 07:00:35;;;;;;;2.60;1.83;;;;;;;27.12;54.38;99917.75;5025219;28;20577;-53
2022/08/04 07:03:02;;;;;;;1.60;1.50;;;;;;;27.05;55.30;99916.69;5023663;28;20819;-52
2022/08/04 07:05:30;;;;;;;1.50;1.40;;;;;;;27.31;54.02;99916.69;5018566;28;20472;-53
2022/08/04 07:07:57;;;;;;;2.23;1.57;;;;;;;27.19;54.26;99917.97;5019797;28;20451;-53
2022/08/04 07:10:26;;;;;;;4.30;2.47;;;;;;;27.81;52.24;99929.63;5025199;28;20934;-52
2022/08/04 07:12:55;;;;;;;2.80;1.70;;;;;;;27.68;52.47;99917.28;5024719;28;20522;-52
2022/08/04 07:15:23;;;;;;;1.93;1.83;;;;;;;27.92;52.51;99926.63;5020869;28;20475;-51
2022/08/04 07:17:51;;;;;;;2.70;2.10;;;;;;;28.64;50.90;99922.41;5034718;28;20459;-52
2022/08/04 07:20:18;;;;;;;1.77;1.67;;;;;;;27.81;52.10;99918.69;5022643;28;20952;-52
2022/08/04 07:23:05;;;;;;;1.97;0.90;;;;;;;27.82;52.14;99917.69;5021831;28;20499;-52
2022/08/04 07:25:35;;;;;;;3.27;2.00;;;;;;;27.86;52.38;99924.56;5025482;28;20560;-52
2022/08/04 07:28:23;;;;;;;1.50;1.40;;;;;;;27.89;52.93;99916.88;5022455;28;20945;-52
2022/08/04 07:30:52;;;;;;;1.77;1.20;;;;;;;27.72;52.98;99915.94;5022115;28;20461;-52
2022/08/04 07:33:19;;;;;;;8.37;1.70;;;;;;;27.90;53.07;99918.59;5028025;28;20460;-52
2022/08/04 07:35:49;;;;;;;1.67;1.57;;;;;;;28.12;51.71;99921.75;5028387;28;20522;-52
2022/08/04 07:38:35;;;;;;;4.60;0.80;;;;;;;28.40;51.45;99923.25;5026146;28;20436;-52
2022/08/04 07:41:05;;;;;;;5.00;1.40;;;;;;;28.27;51.49;99915.50;5021580;28;20455;-52
2022/08/04 07:43:53;;;;;;;1.70;1.40;;;;;;;28.06;52.83;99914.19;5021933;28;20448;-52
2022/08/04 07:46:20;;;;;;;1.60;1.50;;;;;;;27.97;52.53;99914.19;5034878;28;20863;-52
2022/08/04 07:48:47;;;;;;;1.50;1.40;;;;;;;28.24;52.74;99910.34;5021372;28;20445;-52
2022/08/04 07:51:15;;;;;;;3.60;2.03;;;;;;;28.37;51.97;99907.13;5026415;28;20488;-52
2022/08/04 07:53:42;;;;;;;1.17;0.90;;;;;;;28.36;52.14;99913.63;5027992;28;20447;-52
2022/08/04 07:56:21;;;;;;;2.13;2.00;;;;;;;28.86;50.90;99913.53;5025792;28;20443;-52
2022/08/04 07:58:48;;;;;;;1.97;1.87;;;;;;;29.23;50.46;99908.59;5017183;28;20456;-53
2022/08/04 08:01:16;;;;;;;17.93;2.63;;;;;;;29.29;49.46;99910.63;5025546;28;20868;-52
2022/08/04 08:03:42;;;;;;;1.53;1.43;;;;;;;29.53;49.39;99905.13;5020803;28;20522;-52
2022/08/04 08:06:09;;;;;;;1.93;1.83;;;;;;;29.36;49.30;99903.44;5023520;28;20483;-53
2022/08/04 08:08:57;;;;;;;1.60;1.50;;;;;;;29.54;48.42;99901.38;5021507;28;20444;-53
2022/08/04 08:11:24;;;;;;;1.43;1.33;;;;;;;29.62;47.53;99901.34;5020960;28;20499;-52
2022/08/04 08:14:10;;;;;;;2.00;1.90;;;;;;;29.88;47.66;99902.94;5024366;28;20449;-53
2022/08/04 08:16:37;;;;;;;2.00;1.90;;;;;;;29.93;47.20;99906.03;5031083;28;20462;-52
2022/08/04 08:19:04;;;;;;;7.00;1.93;;;;;;;30.04;46.59;99902.91;5024256;28;20478;-52
2022/08/04 08:21:33;;;;;;;2.37;2.17;;;;;;;30.56;46.42;99900.38;5027412;28;20989;-52
2022/08/04 08:24:20;;;;;;;3.53;2.00;;;;;;;30.33;45.50;99899.50;5027547;28;20471;-53
2022/08/04 08:26:46;;;;;;;2.97;1.77;;;;;;;30.33;46.35;99897.63;5020161;28;20451;-52
2022/08/04 08:29:14;;;;;;;7.00;1.90;;;;;;;30.75;46.11;99904.56;5021110;28;20455;-53
2022/08/04 08:31:42;;;;;;;1.57;1.47;;;;;;;31.00;45.12;99899.75;5026324;28;20470;-51
2022/08/04 08:34:24;;;;;;;2.07;1.70;;;;;;;31.06;44.56;99896.22;5027208;28;20468;-52
2022/08/04 08:37:29;;;;;;;1.40;1.30;;;;;;;31.17;44.57;99900.44;5024391;28;20460;-52
2022/08/04 08:40:14;;;;;;;6.47;2.20;;;;;;;31.40;44.02;99890.28;5023060;28;20459;-52
2022/08/04 08:43:18;;;;;;;1.83;1.37;;;;;;;31.31;43.97;99885.91;5020380;28;20971;-52
2022/08/04 08:46:23;;;;;;;2.10;2.00;;;;;;;31.85;42.82;99896.66;5024510;28;20831;-52
2022/08/04 08:49:39;;;;;;;2.17;2.07;;;;;;;31.23;43.57;99889.56;5020338;28;20448;-51
2022/08/04 08:52:36;;;;;;;1.83;1.73;;;;;;;31.64;43.32;99893.78;5020147;28;20490;-52
2022/08/04 08:55:52;;;;;;;1.50;1.23;;;;;;;32.07;41.92;99890.19;5020306;28;20479;-53
2022/08/04 08:58:18;;;;;;;4.67;1.93;;;;;;;31.51;42.23;99881.53;4971111;28;20450;-53
2022/08/04 09:01:24;;;;;;;1.20;1.10;;;;;;;31.94;42.32;99890.00;5026462;28;21005;-55
2022/08/04 09:04:27;;;;;;;2.67;1.30;;;;;;;32.31;41.46;99891.75;4997044;28;20567;-54
2022/08/04 09:07:12;;;;;;;4.70;1.40;;;;;;;31.85;42.24;99882.06;5026837;28;20507;-54
2022/08/04 09:10:00;;;;;;;15.87;2.93;;;;;;;31.92;42.25;99885.72;5026602;28;20422;-54
2022/08/04 09:12:46;;;;;;;5.43;2.27;;;;;;;31.81;42.30;99890.69;5022818;28;21026;-54
2022/08/04 09:15:27;;;;;;;2.20;1.77;;;;;;;32.28;41.72;99880.28;5020019;28;20547;-54
2022/08/04 09:18:17;;;;;;;8.00;1.73;;;;;;;33.11;40.14;99882.41;5031822;28;20924;-53
2022/08/04 09:20:49;;;;;;;1.33;1.23;;;;;;;33.30;40.18;99884.44;5024227;28;20452;-54
2022/08/04 09:23:22;;;;;;;1.10;0.83;;;;;;;33.50;38.84;99886.53;5019993;28;20446;-54
2022/08/04 09:26:07;;;;;;;1.93;1.57;;;;;;;33.48;39.21;99889.50;5019915;28;20539;-52
2022/08/04 09:28:58;;;;;;;1.40;1.30;;;;;;;33.03;39.23;99890.78;5022169;28;20426;-53
2022/08/04 09:31:32;;;;;;;1.40;1.30;;;;;;;33.10;39.59;99885.34;5032152;28;20506;-53
2022/08/04 09:34:37;;;;;;;3.53;1.80;;;;;;;33.75;39.41;99881.38;5019529;28;20487;-53
2022/08/04 09:37:13;;;;;;;1.57;1.20;;;;;;;34.02;37.55;99886.00;5030904;28;20456;-53
2022/08/04 09:40:01;;;;;;;3.83;1.60;;;;;;;34.09;36.77;99881.34;5026316;28;20447;-53
2022/08/04 09:42:44;;;;;;;1.60;1.50;;;;;;;34.15;37.32;99883.28;5026264;28;20440;-53
2022/08/04 09:45:38;;;;;;;1.60;1.50;;;;;;;34.12;35.93;99882.84;5023987;28;20439;-53
2022/08/04 09:48:35;;;;;;;1.67;1.57;;;;;;;33.79;37.10;99879.91;5012964;28;20449;-53
2022/08/04 09:51:11;;;;;;;1.10;1.00;;;;;;;34.37;35.42;99884.00;4988944;28;20806;-53
2022/08/04 09:54:01;;;;;;;3.13;1.60;;;;;;;34.68;36.01;99875.19;5025617;28;20517;-53
2022/08/04 09:56:52;;;;;;;4.93;1.30;;;;;;;34.39;36.05;99881.91;5023925;28;20811;-53
2022/08/04 09:59:19;;;;;;;4.83;2.10;;;;;;;34.24;34.81;99872.06;5020759;28;20452;-53
2022/08/04 10:01:52;;;;;;;15.70;1.60;;;;;;;34.47;34.71;99878.09;5019017;28;20933;-53
2022/08/04 10:04:28;;;;;;;1.00;0.90;;;;;;;34.14;34.55;99867.81;5022432;28;20472;-53
2022/08/04 10:07:22;;;;;;;9.50;1.10;;;;;;;34.36;35.70;99865.75;5025935;28;20498;-53
2022/08/04 10:10:23;;;;;;;4.83;1.90;;;;;;;34.33;35.54;99866.16;5026241;28;20448;-53
2022/08/04 10:12:56;;;;;;;8.70;1.20;;;;;;;34.52;35.25;99855.38;5025101;28;20492;-53
2022/08/04 10:15:40;;;;;;;6.83;2.77;;;;;;;34.71;34.63;99863.69;5019188;28;20453;-53
2022/08/04 10:18:31;;;;;;;3.83;1.83;;;;;;;34.33;34.89;99857.00;5030438;28;20522;-53
2022/08/04 10:21:15;;;;;;;0.90;0.70;;;;;;;34.88;34.94;99850.34;5024990;28;20448;-53
2022/08/04 10:24:34;;;;;;;1.60;1.50;;;;;;;34.88;33.80;99843.97;5024488;28;20426;-53
2022/08/04 10:27:20;;;;;;;1.23;1.13;;;;;;;35.49;34.07;99846.47;4987227;28;20455;-53
2022/08/04 10:29:47;;;;;;;9.30;1.80;;;;;;;35.40;33.44;99845.03;5024780;28;20870;-53
2022/08/04 10:32:24;;;;;;;1.10;1.07;;;;;;;34.94;33.37;99840.34;5040109;28;20498;-53
2022/08/04 10:35:06;;;;;;;0.63;0.63;;;;;;;35.55;33.01;99840.09;5018927;28;20471;-54
2022/08/04 10:38:02;;;;;;;7.80;1.37;;;;;;;35.84;32.90;99841.47;5030404;28;21015;-54
2022/08/04 10:40:50;;;;;;;1.83;1.67;;;;;;;36.02;32.54;99838.88;5019772;28;20451;-54
2022/08/04 10:43:45;;;;;;;1.10;1.10;;;;;;;36.01;32.71;99836.31;5021416;28;20925;-54
2022/08/04 10:46:20;;;;;;;1.63;1.50;;;;;;;35.73;31.71;99844.91;5023448;28;20479;-54
2022/08/04 10:48:57;;;;;;;0.83;0.70;;;;;;;35.67;31.43;99834.75;5018629;28;20444;-54
2022/08/04 10:51:53;;;;;;;1.43;1.33;;;;;;;35.41;32.22;99830.97;5026982;28;20454;-55
2022/08/04 10:55:02;;;;;;;1.90;1.30;;;;;;;35.75;32.09;99826.19;5024218;28;20519;-55
2022/08/04 10:57:35;;;;;;;1.10;1.00;;;;;;;36.54;31.43;99830.50;5029170;28;20456;-54
2022/08/04 11:00:08;;;;;;;3.93;1.60;;;;;;;36.72;31.23;99819.47;5029196;28;20478;-54
2022/08/04 11:02:49;;;;;;;1.03;0.93;;;;;;;36.74;30.75;99822.91;5023564;28;20425;-53
2022/08/04 11:05:26;;;;;;;3.73;1.30;;;;;;;36.03;30.02;99820.34;5022084;28;20468;-54
2022/08/04 11:08:00;;;;;;;1.07;0.80;;;;;;;36.21;30.54;99814.94;5024518;28;20423;-55
2022/08/04 11:10:31;;;;;;;1.20;1.10;;;;;;;36.11;29.83;99817.31;5028947;28;20916;-54
2022/08/04 11:13:03;;;;;;;1.43;1.33;;;;;;;36.48;29.80;99810.09;5028198;28;21007;-54
2022/08/04 11:15:37;;;;;;;14.23;1.30;;;;;;;36.34;29.85;99797.41;5033507;28;20467;-54
2022/08/04 11:18:13;;;;;;;0.70;0.60;;;;;;;36.36;29.58;99803.56;5033754;28;20802;-54
2022/08/04 11:20:53;;;;;;;0.70;0.70;;;;;;;36.22;29.59;99799.16;5025344;28;20525;-54
2022/08/04 11:23:26;;;;;;;0.90;0.90;;;;;;;36.23;30.04;99796.16;5022586;28;20444;-51
2022/08/04 11:26:04;;;;;;;0.93;0.93;;;;;;;36.81;29.91;99800.69;5022776;28;20497;-51
2022/08/04 11:28:39;;;;;;;1.00;0.90;;;;;;;36.81;29.97;99797.91;5023022;28;20421;-51
2022/08/04 11:31:11;;;;;;;1.40;1.07;;;;;;;37.34;29.47;99801.91;5048450;28;20446;-51
2022/08/04 11:33:48;;;;;;;0.80;0.70;;;;;;;37.43;29.14;99796.06;5024804;28;20527;-51
2022/08/04 11:36:27;;;;;;;1.13;1.03;;;;;;;37.38;28.90;99798.66;5031084;28;20496;-51
2022/08/04 11:39:07;;;;;;;6.53;1.00;;;;;;;37.55;27.78;99795.03;5034617;28;20450;-51
2022/08/04 11:41:45;;;;;;;1.37;0.83;;;;;;;37.08;27.90;99794.66;5024073;28;20534;-51
2022/08/04 11:44:21;;;;;;;1.07;0.70;;;;;;;37.16;27.73;99804.63;5021640;28;20422;-52
2022/08/04 11:46:52;;;;;;;0.80;0.80;;;;;;;37.06;27.71;99794.06;5034787;28;20452;-51
2022/08/04 11:49:40;;;;;;;0.80;0.70;;;;;;;37.39;27.96;99794.81;5021376;28;20426;-51
2022/08/04 11:52:25;;;;;;;1.10;0.93;;;;;;;37.48;27.48;99790.66;5021426;28;21024;-51
2022/08/04 11:54:53;;;;;;;8.97;0.87;;;;;;;37.56;27.18;99793.13;5022737;28;20507;-52
2022/08/04 11:57:21;;;;;;;0.70;0.53;;;;;;;38.08;27.02;99780.47;5028190;28;20456;-51
2022/08/04 12:00:05;;;;;;;0.73;0.70;;;;;;;38.19;26.94;99784.38;5027894;28;20450;-51
2022/08/04 12:03:00;;;;;;;0.60;0.53;;;;;;;37.46;26.74;99777.03;5022243;28;20467;-51
2022/08/04 12:05:31;;;;;;;2.10;1.07;;;;;;;37.76;26.53;99768.78;5021063;28;20474;-52
2022/08/04 12:08:27;;;;;;;0.60;0.40;;;;;;;37.87;25.58;99770.75;5021192;28;20445;-51
2022/08/04 12:11:24;;;;;;;0.90;0.90;;;;;;;38.32;24.82;99770.34;5023910;28;20423;-51
2022/08/04 12:14:52;;;;;;;0.90;0.80;;;;;;;37.76;24.75;99760.44;5022339;28;20462;-51
2022/08/04 12:17:30;;;;;;;0.80;0.67;;;;;;;37.87;24.03;99754.09;4918801;28;20452;-51
2022/08/04 12:20:22;;;;;;;0.60;0.60;;;;;;;38.58;24.74;99760.72;5022076;28;20509;-51
2022/08/04 12:23:29;;;;;;;2.30;0.70;;;;;;;38.06;24.58;99756.81;5020852;28;20421;-51
2022/08/04 12:26:02;;;;;;;2.60;0.70;;;;;;;38.51;24.48;99760.81;5020742;28;20465;-53
2022/08/04 12:28:42;;;;;;;13.53;1.20;;;;;;;37.98;24.44;99748.84;5025727;28;20423;-51
2022/08/04 12:31:38;;;;;;;0.97;0.87;;;;;;;38.69;23.81;99759.09;5046527;28;20542;-51
2022/08/04 12:34:32;;;;;;;0.87;0.80;;;;;;;38.81;23.36;99746.03;5020595;28;20984;-51
2022/08/04 12:37:08;;;;;;;0.70;0.60;;;;;;;38.55;23.40;99735.34;5031607;28;20944;-51